sensor_id;sensor_type;location;lat;lon;timestamp;temperature;humidity
51801;DHT22;37855;53.204;6.568;2023-07-29T00:01:01;19.80;74.40
51801;DHT22;37855;53.204;6.568;2023-07-29T00:03:27;19.70;74.30
51801;DHT22;37855;53.204;6.568;2023-07-29T00:05:55;19.80;74.40
51801;DHT22;37855;53.204;6.568;2023-07-29T00:08:21;19.80;74.30
51801;DHT22;37855;53.204;6.568;2023-07-29T00:10:46;19.80;74.30
51801;DHT22;37855;53.204;6.568;2023-07-29T00:13:12;19.80;74.30
51801;DHT22;37855;53.204;6.568;2023-07-29T00:15:38;19.80;74.30
51801;DHT22;37855;53.204;6.568;2023-07-29T00:18:03;19.80;74.20
51801;DHT22;37855;53.204;6.568;2023-07-29T00:20:29;19.80;74.20
51801;DHT22;37855;53.204;6.568;2023-07-29T00:22:55;19.80;74.20
51801;DHT22;37855;53.204;6.568;2023-07-29T00:25:21;19.70;74.10
51801;DHT22;37855;53.204;6.568;2023-07-29T00:27:47;19.80;74.20
51801;DHT22;37855;53.204;6.568;2023-07-29T00:30:13;19.70;74.10
51801;DHT22;37855;53.204;6.568;2023-07-29T00:32:38;19.70;74.10
51801;DHT22;37855;53.204;6.568;2023-07-29T00:35:04;19.70;74.10
51801;DHT22;37855;53.204;6.568;2023-07-29T00:37:30;19.70;74.10
51801;DHT22;37855;53.204;6.568;2023-07-29T00:39:56;19.70;74.10
51801;DHT22;37855;53.204;6.568;2023-07-29T00:42:22;19.70;74.10
51801;DHT22;37855;53.204;6.568;2023-07-29T00:44:48;19.70;74.10
51801;DHT22;37855;53.204;6.568;2023-07-29T00:47:15;19.60;74.10
51801;DHT22;37855;53.204;6.568;2023-07-29T00:49:44;19.60;74.10
51801;DHT22;37855;53.204;6.568;2023-07-29T00:52:11;19.60;74.20
51801;DHT22;37855;53.204;6.568;2023-07-29T00:54:39;19.60;74.10
51801;DHT22;37855;53.204;6.568;2023-07-29T00:57:05;19.60;74.10
51801;DHT22;37855;53.204;6.568;2023-07-29T00:59:32;19.60;74.20
51801;DHT22;37855;53.204;6.568;2023-07-29T01:01:59;19.60;74.20
51801;DHT22;37855;53.204;6.568;2023-07-29T01:04:25;19.60;74.20
51801;DHT22;37855;53.204;6.568;2023-07-29T01:12:18;19.50;74.30
51801;DHT22;37855;53.204;6.568;2023-07-29T01:15:11;19.50;74.30
51801;DHT22;37855;53.204;6.568;2023-07-29T01:17:45;19.50;74.40
51801;DHT22;37855;53.204;6.568;2023-07-29T01:20:14;19.50;74.40
51801;DHT22;37855;53.204;6.568;2023-07-29T01:22:41;19.40;74.40
51801;DHT22;37855;53.204;6.568;2023-07-29T01:25:07;19.40;74.50
51801;DHT22;37855;53.204;6.568;2023-07-29T01:27:33;19.40;74.50
51801;DHT22;37855;53.204;6.568;2023-07-29T01:29:59;19.40;74.50
51801;DHT22;37855;53.204;6.568;2023-07-29T01:33:19;19.30;74.60
51801;DHT22;37855;53.204;6.568;2023-07-29T01:35:33;19.30;74.70
51801;DHT22;37855;53.204;6.568;2023-07-29T01:38:06;19.20;74.80
51801;DHT22;37855;53.204;6.568;2023-07-29T01:40:33;19.10;74.90
51801;DHT22;37855;53.204;6.568;2023-07-29T01:43:03;19.10;75.00
51801;DHT22;37855;53.204;6.568;2023-07-29T01:45:29;19.10;75.00
51801;DHT22;37855;53.204;6.568;2023-07-29T01:47:57;19.10;75.20
51801;DHT22;37855;53.204;6.568;2023-07-29T01:50:23;19.00;75.20
51801;DHT22;37855;53.204;6.568;2023-07-29T01:52:48;19.00;75.30
51801;DHT22;37855;53.204;6.568;2023-07-29T01:55:14;18.90;75.40
51801;DHT22;37855;53.204;6.568;2023-07-29T01:57:40;18.90;75.40
51801;DHT22;37855;53.204;6.568;2023-07-29T02:00:06;18.90;75.50
51801;DHT22;37855;53.204;6.568;2023-07-29T02:02:32;18.90;75.60
51801;DHT22;37855;53.204;6.568;2023-07-29T02:04:57;18.80;75.60
51801;DHT22;37855;53.204;6.568;2023-07-29T02:07:23;18.80;75.60
51801;DHT22;37855;53.204;6.568;2023-07-29T02:09:51;18.70;75.70
51801;DHT22;37855;53.204;6.568;2023-07-29T02:12:17;18.70;75.80
51801;DHT22;37855;53.204;6.568;2023-07-29T02:14:43;18.70;75.80
51801;DHT22;37855;53.204;6.568;2023-07-29T02:17:08;18.70;75.90
51801;DHT22;37855;53.204;6.568;2023-07-29T02:19:34;18.70;75.90
51801;DHT22;37855;53.204;6.568;2023-07-29T02:22:00;18.70;75.90
51801;DHT22;37855;53.204;6.568;2023-07-29T02:24:26;18.70;75.90
51801;DHT22;37855;53.204;6.568;2023-07-29T02:26:51;18.60;75.90
51801;DHT22;37855;53.204;6.568;2023-07-29T02:29:17;18.60;76.00
51801;DHT22;37855;53.204;6.568;2023-07-29T02:31:43;18.60;76.10
51801;DHT22;37855;53.204;6.568;2023-07-29T02:34:09;18.60;76.10
51801;DHT22;37855;53.204;6.568;2023-07-29T02:36:35;18.50;76.20
51801;DHT22;37855;53.204;6.568;2023-07-29T02:39:01;18.40;76.30
51801;DHT22;37855;53.204;6.568;2023-07-29T02:41:26;18.40;76.30
51801;DHT22;37855;53.204;6.568;2023-07-29T02:43:52;18.40;76.40
51801;DHT22;37855;53.204;6.568;2023-07-29T02:46:18;18.40;76.40
51801;DHT22;37855;53.204;6.568;2023-07-29T02:48:44;18.40;76.40
51801;DHT22;37855;53.204;6.568;2023-07-29T02:51:10;18.40;76.50
51801;DHT22;37855;53.204;6.568;2023-07-29T02:53:36;18.30;76.40
51801;DHT22;37855;53.204;6.568;2023-07-29T02:56:05;18.30;76.50
51801;DHT22;37855;53.204;6.568;2023-07-29T02:58:31;18.30;76.50
51801;DHT22;37855;53.204;6.568;2023-07-29T03:01:01;18.30;76.50
51801;DHT22;37855;53.204;6.568;2023-07-29T03:03:28;18.30;76.60
51801;DHT22;37855;53.204;6.568;2023-07-29T03:06:07;18.20;76.60
51801;DHT22;37855;53.204;6.568;2023-07-29T03:08:33;18.30;76.60
51801;DHT22;37855;53.204;6.568;2023-07-29T03:11:04;18.20;76.70
51801;DHT22;37855;53.204;6.568;2023-07-29T03:13:30;18.20;76.70
51801;DHT22;37855;53.204;6.568;2023-07-29T03:16:07;18.10;76.70
51801;DHT22;37855;53.204;6.568;2023-07-29T03:18:33;18.10;76.70
51801;DHT22;37855;53.204;6.568;2023-07-29T03:20:59;18.10;76.80
51801;DHT22;37855;53.204;6.568;2023-07-29T03:23:25;18.00;76.90
51801;DHT22;37855;53.204;6.568;2023-07-29T03:25:51;18.00;76.80
51801;DHT22;37855;53.204;6.568;2023-07-29T03:28:18;18.00;77.00
51801;DHT22;37855;53.204;6.568;2023-07-29T03:30:44;18.00;76.90
51801;DHT22;37855;53.204;6.568;2023-07-29T03:33:09;18.00;77.00
51801;DHT22;37855;53.204;6.568;2023-07-29T03:35:35;17.90;77.10
51801;DHT22;37855;53.204;6.568;2023-07-29T03:38:01;17.90;77.10
51801;DHT22;37855;53.204;6.568;2023-07-29T03:40:26;17.90;77.20
51801;DHT22;37855;53.204;6.568;2023-07-29T03:42:52;17.80;77.20
51801;DHT22;37855;53.204;6.568;2023-07-29T03:45:18;17.80;77.20
51801;DHT22;37855;53.204;6.568;2023-07-29T03:47:43;17.80;77.30
51801;DHT22;37855;53.204;6.568;2023-07-29T03:50:09;17.80;77.30
51801;DHT22;37855;53.204;6.568;2023-07-29T03:52:35;17.80;77.30
51801;DHT22;37855;53.204;6.568;2023-07-29T03:55:00;17.80;77.40
51801;DHT22;37855;53.204;6.568;2023-07-29T03:57:26;17.80;77.30
51801;DHT22;37855;53.204;6.568;2023-07-29T03:59:52;17.80;77.30
51801;DHT22;37855;53.204;6.568;2023-07-29T04:02:18;17.80;77.30
51801;DHT22;37855;53.204;6.568;2023-07-29T04:04:43;17.70;77.40
51801;DHT22;37855;53.204;6.568;2023-07-29T04:07:12;17.70;77.40
51801;DHT22;37855;53.204;6.568;2023-07-29T04:09:38;17.80;77.40
51801;DHT22;37855;53.204;6.568;2023-07-29T04:12:04;17.70;77.40
51801;DHT22;37855;53.204;6.568;2023-07-29T04:14:30;17.80;77.30
51801;DHT22;37855;53.204;6.568;2023-07-29T04:16:56;17.80;77.40
51801;DHT22;37855;53.204;6.568;2023-07-29T04:19:21;17.80;77.20
51801;DHT22;37855;53.204;6.568;2023-07-29T04:21:47;17.80;77.30
51801;DHT22;37855;53.204;6.568;2023-07-29T04:24:13;17.80;77.20
51801;DHT22;37855;53.204;6.568;2023-07-29T04:26:38;17.80;77.20
51801;DHT22;37855;53.204;6.568;2023-07-29T04:29:05;17.80;77.30
51801;DHT22;37855;53.204;6.568;2023-07-29T04:31:30;17.80;77.10
51801;DHT22;37855;53.204;6.568;2023-07-29T04:33:56;17.90;77.10
51801;DHT22;37855;53.204;6.568;2023-07-29T04:36:22;17.90;77.10
51801;DHT22;37855;53.204;6.568;2023-07-29T04:38:47;17.90;76.90
51801;DHT22;37855;53.204;6.568;2023-07-29T04:41:13;17.90;76.90
51801;DHT22;37855;53.204;6.568;2023-07-29T04:43:39;17.90;76.90
51801;DHT22;37855;53.204;6.568;2023-07-29T04:46:07;17.90;76.80
51801;DHT22;37855;53.204;6.568;2023-07-29T04:48:34;17.90;76.90
51801;DHT22;37855;53.204;6.568;2023-07-29T04:50:59;18.00;76.80
51801;DHT22;37855;53.204;6.568;2023-07-29T04:53:25;18.00;76.70
51801;DHT22;37855;53.204;6.568;2023-07-29T04:55:51;18.00;76.60
51801;DHT22;37855;53.204;6.568;2023-07-29T04:58:16;18.10;76.50
51801;DHT22;37855;53.204;6.568;2023-07-29T05:00:42;18.10;76.50
51801;DHT22;37855;53.204;6.568;2023-07-29T05:03:08;18.10;76.40
51801;DHT22;37855;53.204;6.568;2023-07-29T05:05:33;18.20;76.30
51801;DHT22;37855;53.204;6.568;2023-07-29T05:07:59;18.10;76.20
51801;DHT22;37855;53.204;6.568;2023-07-29T05:10:24;18.20;76.20
51801;DHT22;37855;53.204;6.568;2023-07-29T05:12:50;18.20;76.10
51801;DHT22;37855;53.204;6.568;2023-07-29T05:15:16;18.20;76.10
51801;DHT22;37855;53.204;6.568;2023-07-29T05:17:42;18.20;76.00
51801;DHT22;37855;53.204;6.568;2023-07-29T05:20:08;18.20;76.00
51801;DHT22;37855;53.204;6.568;2023-07-29T05:22:34;18.30;75.90
51801;DHT22;37855;53.204;6.568;2023-07-29T05:24:59;18.20;75.80
51801;DHT22;37855;53.204;6.568;2023-07-29T05:27:25;18.20;75.80
51801;DHT22;37855;53.204;6.568;2023-07-29T05:29:54;18.30;75.80
51801;DHT22;37855;53.204;6.568;2023-07-29T05:32:19;18.30;75.70
51801;DHT22;37855;53.204;6.568;2023-07-29T05:34:45;18.30;75.70
51801;DHT22;37855;53.204;6.568;2023-07-29T05:37:11;18.30;75.70
51801;DHT22;37855;53.204;6.568;2023-07-29T05:39:36;18.30;75.70
51801;DHT22;37855;53.204;6.568;2023-07-29T05:42:03;18.40;75.50
51801;DHT22;37855;53.204;6.568;2023-07-29T05:44:29;18.30;75.40
51801;DHT22;37855;53.204;6.568;2023-07-29T05:46:56;18.30;75.50
51801;DHT22;37855;53.204;6.568;2023-07-29T05:49:22;18.40;75.50
51801;DHT22;37855;53.204;6.568;2023-07-29T05:51:47;18.40;75.30
51801;DHT22;37855;53.204;6.568;2023-07-29T05:54:18;18.40;75.40
51801;DHT22;37855;53.204;6.568;2023-07-29T05:56:43;18.40;75.40
51801;DHT22;37855;53.204;6.568;2023-07-29T05:59:09;18.40;75.40
51801;DHT22;37855;53.204;6.568;2023-07-29T06:01:38;18.40;75.40
51801;DHT22;37855;53.204;6.568;2023-07-29T06:04:03;18.40;75.30
51801;DHT22;37855;53.204;6.568;2023-07-29T06:06:29;18.40;75.30
51801;DHT22;37855;53.204;6.568;2023-07-29T06:08:55;18.50;75.30
51801;DHT22;37855;53.204;6.568;2023-07-29T06:11:21;18.50;75.30
51801;DHT22;37855;53.204;6.568;2023-07-29T06:13:47;18.50;75.20
51801;DHT22;37855;53.204;6.568;2023-07-29T06:16:13;18.50;75.20
51801;DHT22;37855;53.204;6.568;2023-07-29T06:18:39;18.50;75.20
51801;DHT22;37855;53.204;6.568;2023-07-29T06:21:05;18.50;75.20
51801;DHT22;37855;53.204;6.568;2023-07-29T06:23:36;18.50;75.20
51801;DHT22;37855;53.204;6.568;2023-07-29T06:26:02;18.50;75.00
51801;DHT22;37855;53.204;6.568;2023-07-29T06:28:28;18.50;74.90
51801;DHT22;37855;53.204;6.568;2023-07-29T06:30:57;18.60;74.90
51801;DHT22;37855;53.204;6.568;2023-07-29T06:33:22;18.70;74.80
51801;DHT22;37855;53.204;6.568;2023-07-29T06:35:48;18.80;74.80
51801;DHT22;37855;53.204;6.568;2023-07-29T06:38:14;18.90;74.50
51801;DHT22;37855;53.204;6.568;2023-07-29T06:40:39;19.00;74.20
51801;DHT22;37855;53.204;6.568;2023-07-29T06:43:05;19.10;74.00
51801;DHT22;37855;53.204;6.568;2023-07-29T06:45:31;19.20;73.90
51801;DHT22;37855;53.204;6.568;2023-07-29T06:47:56;19.30;73.80
51801;DHT22;37855;53.204;6.568;2023-07-29T06:50:22;19.40;73.60
51801;DHT22;37855;53.204;6.568;2023-07-29T06:52:48;19.40;73.50
51801;DHT22;37855;53.204;6.568;2023-07-29T06:55:13;19.40;73.40
51801;DHT22;37855;53.204;6.568;2023-07-29T06:57:39;19.50;73.50
51801;DHT22;37855;53.204;6.568;2023-07-29T07:00:05;19.50;73.30
51801;DHT22;37855;53.204;6.568;2023-07-29T07:02:31;19.50;73.30
51801;DHT22;37855;53.204;6.568;2023-07-29T07:04:57;19.60;73.20
51801;DHT22;37855;53.204;6.568;2023-07-29T07:07:23;19.60;73.10
51801;DHT22;37855;53.204;6.568;2023-07-29T07:09:48;19.60;72.70
51801;DHT22;37855;53.204;6.568;2023-07-29T07:12:14;19.60;72.80
51801;DHT22;37855;53.204;6.568;2023-07-29T07:14:40;19.60;72.70
51801;DHT22;37855;53.204;6.568;2023-07-29T07:17:05;19.70;72.70
51801;DHT22;37855;53.204;6.568;2023-07-29T07:19:31;19.70;73.40
51801;DHT22;37855;53.204;6.568;2023-07-29T07:21:57;19.80;73.40
51801;DHT22;37855;53.204;6.568;2023-07-29T07:24:22;19.80;72.90
51801;DHT22;37855;53.204;6.568;2023-07-29T07:26:48;19.80;73.10
51801;DHT22;37855;53.204;6.568;2023-07-29T07:29:14;19.90;73.10
51801;DHT22;37855;53.204;6.568;2023-07-29T07:31:40;19.90;73.20
51801;DHT22;37855;53.204;6.568;2023-07-29T07:34:07;20.00;73.00
51801;DHT22;37855;53.204;6.568;2023-07-29T07:36:33;20.10;72.80
51801;DHT22;37855;53.204;6.568;2023-07-29T07:38:59;20.10;72.90
51801;DHT22;37855;53.204;6.568;2023-07-29T07:41:24;20.20;72.50
51801;DHT22;37855;53.204;6.568;2023-07-29T07:43:50;20.20;72.40
51801;DHT22;37855;53.204;6.568;2023-07-29T07:46:16;20.30;72.40
51801;DHT22;37855;53.204;6.568;2023-07-29T07:48:41;20.40;72.10
51801;DHT22;37855;53.204;6.568;2023-07-29T07:51:11;20.50;71.70
51801;DHT22;37855;53.204;6.568;2023-07-29T07:53:37;20.60;71.60
51801;DHT22;37855;53.204;6.568;2023-07-29T07:56:04;20.60;71.30
51801;DHT22;37855;53.204;6.568;2023-07-29T07:58:30;20.70;71.40
51801;DHT22;37855;53.204;6.568;2023-07-29T08:01:03;20.80;71.10
51801;DHT22;37855;53.204;6.568;2023-07-29T08:03:30;20.90;70.80
51801;DHT22;37855;53.204;6.568;2023-07-29T08:05:55;21.00;70.50
51801;DHT22;37855;53.204;6.568;2023-07-29T08:08:21;21.10;70.30
51801;DHT22;37855;53.204;6.568;2023-07-29T08:10:47;21.20;70.10
51801;DHT22;37855;53.204;6.568;2023-07-29T08:13:12;21.30;69.90
51801;DHT22;37855;53.204;6.568;2023-07-29T08:15:38;21.20;69.50
51801;DHT22;37855;53.204;6.568;2023-07-29T08:18:04;21.20;69.70
51801;DHT22;37855;53.204;6.568;2023-07-29T08:20:29;21.20;69.50
51801;DHT22;37855;53.204;6.568;2023-07-29T08:22:55;21.10;69.60
51801;DHT22;37855;53.204;6.568;2023-07-29T08:25:21;21.00;69.70
51801;DHT22;37855;53.204;6.568;2023-07-29T08:27:46;21.00;69.30
51801;DHT22;37855;53.204;6.568;2023-07-29T08:30:12;21.10;69.10
51801;DHT22;37855;53.204;6.568;2023-07-29T08:32:38;21.20;68.60
51801;DHT22;37855;53.204;6.568;2023-07-29T08:35:03;21.30;68.60
51801;DHT22;37855;53.204;6.568;2023-07-29T08:37:29;21.30;68.50
51801;DHT22;37855;53.204;6.568;2023-07-29T08:39:56;21.30;68.30
51801;DHT22;37855;53.204;6.568;2023-07-29T08:42:23;21.30;68.20
51801;DHT22;37855;53.204;6.568;2023-07-29T08:44:54;21.20;68.10
51801;DHT22;37855;53.204;6.568;2023-07-29T08:47:20;21.00;68.20
51801;DHT22;37855;53.204;6.568;2023-07-29T08:49:46;20.90;68.30
51801;DHT22;37855;53.204;6.568;2023-07-29T08:52:14;20.80;68.60
51801;DHT22;37855;53.204;6.568;2023-07-29T08:54:40;20.70;69.10
51801;DHT22;37855;53.204;6.568;2023-07-29T08:57:06;20.70;69.40
51801;DHT22;37855;53.204;6.568;2023-07-29T08:59:33;20.80;69.40
51801;DHT22;37855;53.204;6.568;2023-07-29T09:01:58;20.90;69.20
51801;DHT22;37855;53.204;6.568;2023-07-29T09:04:24;21.20;68.90
51801;DHT22;37855;53.204;6.568;2023-07-29T09:06:51;21.30;68.50
51801;DHT22;37855;53.204;6.568;2023-07-29T09:09:17;21.50;68.10
51801;DHT22;37855;53.204;6.568;2023-07-29T09:11:43;21.60;66.80
51801;DHT22;37855;53.204;6.568;2023-07-29T09:14:10;21.60;66.40
51801;DHT22;37855;53.204;6.568;2023-07-29T09:16:36;21.50;66.10
51801;DHT22;37855;53.204;6.568;2023-07-29T09:19:03;21.50;66.40
51801;DHT22;37855;53.204;6.568;2023-07-29T09:21:29;21.50;66.70
51801;DHT22;37855;53.204;6.568;2023-07-29T09:23:55;21.50;66.40
51801;DHT22;37855;53.204;6.568;2023-07-29T09:26:28;21.50;66.40
51801;DHT22;37855;53.204;6.568;2023-07-29T09:28:56;21.60;66.20
51801;DHT22;37855;53.204;6.568;2023-07-29T09:31:23;21.50;66.00
51801;DHT22;37855;53.204;6.568;2023-07-29T09:33:49;21.50;66.00
51801;DHT22;37855;53.204;6.568;2023-07-29T09:36:15;21.50;66.00
51801;DHT22;37855;53.204;6.568;2023-07-29T09:38:41;21.70;65.50
51801;DHT22;37855;53.204;6.568;2023-07-29T09:41:09;21.90;65.20
51801;DHT22;37855;53.204;6.568;2023-07-29T09:43:36;22.00;65.00
51801;DHT22;37855;53.204;6.568;2023-07-29T09:46:03;22.00;64.70
51801;DHT22;37855;53.204;6.568;2023-07-29T09:48:38;22.10;64.80
51801;DHT22;37855;53.204;6.568;2023-07-29T09:51:14;22.20;63.90
51801;DHT22;37855;53.204;6.568;2023-07-29T09:53:47;22.30;64.30
51801;DHT22;37855;53.204;6.568;2023-07-29T09:56:14;22.30;63.80
51801;DHT22;37855;53.204;6.568;2023-07-29T09:58:47;22.20;63.50
51801;DHT22;37855;53.204;6.568;2023-07-29T10:01:14;22.10;63.90
51801;DHT22;37855;53.204;6.568;2023-07-29T10:03:40;22.20;63.50
51801;DHT22;37855;53.204;6.568;2023-07-29T10:06:07;22.30;63.30
51801;DHT22;37855;53.204;6.568;2023-07-29T10:08:34;22.30;63.50
51801;DHT22;37855;53.204;6.568;2023-07-29T10:11:08;22.30;63.70
51801;DHT22;37855;53.204;6.568;2023-07-29T10:13:43;22.20;63.70
51801;DHT22;37855;53.204;6.568;2023-07-29T10:16:09;22.20;64.20
51801;DHT22;37855;53.204;6.568;2023-07-29T10:18:36;22.30;64.30
51801;DHT22;37855;53.204;6.568;2023-07-29T10:21:02;22.30;64.30
51801;DHT22;37855;53.204;6.568;2023-07-29T10:23:36;22.40;63.90
51801;DHT22;37855;53.204;6.568;2023-07-29T10:26:10;22.40;64.20
51801;DHT22;37855;53.204;6.568;2023-07-29T10:28:41;22.50;63.80
51801;DHT22;37855;53.204;6.568;2023-07-29T10:31:10;22.60;63.80
51801;DHT22;37855;53.204;6.568;2023-07-29T10:33:37;22.60;63.50
51801;DHT22;37855;53.204;6.568;2023-07-29T10:36:04;22.60;63.70
51801;DHT22;37855;53.204;6.568;2023-07-29T10:38:31;22.60;63.50
51801;DHT22;37855;53.204;6.568;2023-07-29T10:40:58;22.60;63.50
51801;DHT22;37855;53.204;6.568;2023-07-29T10:43:27;22.70;63.20
51801;DHT22;37855;53.204;6.568;2023-07-29T10:45:57;22.80;62.80
51801;DHT22;37855;53.204;6.568;2023-07-29T10:48:42;22.90;62.30
51801;DHT22;37855;53.204;6.568;2023-07-29T10:54:11;23.30;62.10
51801;DHT22;37855;53.204;6.568;2023-07-29T10:56:42;23.20;61.70
51801;DHT22;37855;53.204;6.568;2023-07-29T11:01:57;23.20;61.90
51801;DHT22;37855;53.204;6.568;2023-07-29T11:04:30;23.20;61.70
51801;DHT22;37855;53.204;6.568;2023-07-29T11:12:48;22.80;62.90
51801;DHT22;37855;53.204;6.568;2023-07-29T11:15:16;22.60;63.20
51801;DHT22;37855;53.204;6.568;2023-07-29T11:17:47;22.50;64.20
51801;DHT22;37855;53.204;6.568;2023-07-29T11:20:16;22.30;64.70
51801;DHT22;37855;53.204;6.568;2023-07-29T11:22:48;22.10;65.40
51801;DHT22;37855;53.204;6.568;2023-07-29T11:25:18;22.00;65.50
51801;DHT22;37855;53.204;6.568;2023-07-29T11:27:45;22.00;65.50
51801;DHT22;37855;53.204;6.568;2023-07-29T11:30:12;22.00;65.60
51801;DHT22;37855;53.204;6.568;2023-07-29T11:32:44;22.00;65.60
51801;DHT22;37855;53.204;6.568;2023-07-29T11:35:12;22.00;65.60
51801;DHT22;37855;53.204;6.568;2023-07-29T11:37:40;22.10;65.50
51801;DHT22;37855;53.204;6.568;2023-07-29T11:40:07;22.40;64.90
51801;DHT22;37855;53.204;6.568;2023-07-29T11:42:34;22.50;64.70
51801;DHT22;37855;53.204;6.568;2023-07-29T11:45:05;22.50;64.50
51801;DHT22;37855;53.204;6.568;2023-07-29T11:47:35;22.60;64.50
51801;DHT22;37855;53.204;6.568;2023-07-29T11:50:06;22.60;63.60
51801;DHT22;37855;53.204;6.568;2023-07-29T11:52:36;22.60;63.80
51801;DHT22;37855;53.204;6.568;2023-07-29T11:55:03;22.50;64.10
51801;DHT22;37855;53.204;6.568;2023-07-29T11:57:35;22.60;64.00
51801;DHT22;37855;53.204;6.568;2023-07-29T12:00:08;22.60;63.70
51801;DHT22;37855;53.204;6.568;2023-07-29T12:02:41;22.50;63.70
51801;DHT22;37855;53.204;6.568;2023-07-29T12:05:08;22.50;64.00
51801;DHT22;37855;53.204;6.568;2023-07-29T12:07:35;22.40;64.50
51801;DHT22;37855;53.204;6.568;2023-07-29T12:10:02;22.40;63.30
51801;DHT22;37855;53.204;6.568;2023-07-29T12:12:30;22.30;63.00
51801;DHT22;37855;53.204;6.568;2023-07-29T12:14:56;22.30;63.40
51801;DHT22;37855;53.204;6.568;2023-07-29T12:17:22;22.30;63.80
51801;DHT22;37855;53.204;6.568;2023-07-29T12:19:48;22.30;63.90
51801;DHT22;37855;53.204;6.568;2023-07-29T12:22:18;22.40;63.60
51801;DHT22;37855;53.204;6.568;2023-07-29T12:24:45;22.40;63.60
51801;DHT22;37855;53.204;6.568;2023-07-29T12:27:14;22.40;63.60
51801;DHT22;37855;53.204;6.568;2023-07-29T12:29:42;22.30;63.60
51801;DHT22;37855;53.204;6.568;2023-07-29T12:32:09;22.30;63.70
51801;DHT22;37855;53.204;6.568;2023-07-29T12:34:36;22.20;63.90
51801;DHT22;37855;53.204;6.568;2023-07-29T12:37:03;22.20;64.30
51801;DHT22;37855;53.204;6.568;2023-07-29T12:39:32;22.40;64.60
51801;DHT22;37855;53.204;6.568;2023-07-29T12:41:59;22.50;64.60
51801;DHT22;37855;53.204;6.568;2023-07-29T12:44:30;22.50;64.40
51801;DHT22;37855;53.204;6.568;2023-07-29T12:46:55;22.30;64.50
51801;DHT22;37855;53.204;6.568;2023-07-29T12:49:21;22.20;64.80
51801;DHT22;37855;53.204;6.568;2023-07-29T12:51:48;22.10;65.20
51801;DHT22;37855;53.204;6.568;2023-07-29T12:54:13;22.20;65.40
51801;DHT22;37855;53.204;6.568;2023-07-29T12:56:39;22.20;64.90
51801;DHT22;37855;53.204;6.568;2023-07-29T12:59:05;22.30;64.50
51801;DHT22;37855;53.204;6.568;2023-07-29T13:01:34;22.30;64.80
51801;DHT22;37855;53.204;6.568;2023-07-29T13:03:59;22.40;64.30
51801;DHT22;37855;53.204;6.568;2023-07-29T13:06:25;22.30;64.20
51801;DHT22;37855;53.204;6.568;2023-07-29T13:08:51;22.30;64.70
51801;DHT22;37855;53.204;6.568;2023-07-29T13:11:17;22.30;64.80
51801;DHT22;37855;53.204;6.568;2023-07-29T13:13:43;22.30;64.90
51801;DHT22;37855;53.204;6.568;2023-07-29T13:16:13;22.30;64.40
51801;DHT22;37855;53.204;6.568;2023-07-29T13:18:39;22.30;64.10
51801;DHT22;37855;53.204;6.568;2023-07-29T13:21:06;22.20;63.90
51801;DHT22;37855;53.204;6.568;2023-07-29T13:23:33;22.00;63.90
51801;DHT22;37855;53.204;6.568;2023-07-29T13:25:59;22.00;63.90
51801;DHT22;37855;53.204;6.568;2023-07-29T13:28:24;22.00;64.10
51801;DHT22;37855;53.204;6.568;2023-07-29T13:30:50;22.00;64.00
51801;DHT22;37855;53.204;6.568;2023-07-29T13:33:16;22.00;64.00
51801;DHT22;37855;53.204;6.568;2023-07-29T13:35:42;22.10;63.80
51801;DHT22;37855;53.204;6.568;2023-07-29T13:38:08;22.20;63.80
51801;DHT22;37855;53.204;6.568;2023-07-29T13:40:34;22.20;63.50
51801;DHT22;37855;53.204;6.568;2023-07-29T13:43:00;22.20;62.40
51801;DHT22;37855;53.204;6.568;2023-07-29T13:45:26;22.10;63.00
51801;DHT22;37855;53.204;6.568;2023-07-29T13:47:51;22.00;63.10
51801;DHT22;37855;53.204;6.568;2023-07-29T13:50:17;21.90;63.20
51801;DHT22;37855;53.204;6.568;2023-07-29T13:52:43;21.80;63.30
51801;DHT22;37855;53.204;6.568;2023-07-29T13:55:09;21.70;63.50
51801;DHT22;37855;53.204;6.568;2023-07-29T13:57:35;21.70;63.70
51801;DHT22;37855;53.204;6.568;2023-07-29T14:00:01;21.60;63.40
51801;DHT22;37855;53.204;6.568;2023-07-29T14:02:27;21.60;63.60
51801;DHT22;37855;53.204;6.568;2023-07-29T14:04:53;21.60;63.90
51801;DHT22;37855;53.204;6.568;2023-07-29T14:07:18;21.70;64.60
51801;DHT22;37855;53.204;6.568;2023-07-29T14:09:44;21.80;65.50
51801;DHT22;37855;53.204;6.568;2023-07-29T14:12:10;21.90;65.40
51801;DHT22;37855;53.204;6.568;2023-07-29T14:14:41;22.10;65.60
51801;DHT22;37855;53.204;6.568;2023-07-29T14:17:07;22.20;65.10
51801;DHT22;37855;53.204;6.568;2023-07-29T14:19:34;22.20;64.90
51801;DHT22;37855;53.204;6.568;2023-07-29T14:22:00;22.30;65.20
51801;DHT22;37855;53.204;6.568;2023-07-29T14:24:25;22.30;64.80
51801;DHT22;37855;53.204;6.568;2023-07-29T14:26:51;22.20;63.90
51801;DHT22;37855;53.204;6.568;2023-07-29T14:29:17;22.20;63.90
51801;DHT22;37855;53.204;6.568;2023-07-29T14:31:42;22.30;63.90
51801;DHT22;37855;53.204;6.568;2023-07-29T14:34:08;22.30;63.60
51801;DHT22;37855;53.204;6.568;2023-07-29T14:36:34;22.50;63.00
51801;DHT22;37855;53.204;6.568;2023-07-29T14:39:00;22.50;63.00
51801;DHT22;37855;53.204;6.568;2023-07-29T14:41:25;22.60;62.50
51801;DHT22;37855;53.204;6.568;2023-07-29T14:43:51;22.50;61.60
51801;DHT22;37855;53.204;6.568;2023-07-29T14:46:17;22.50;61.80
51801;DHT22;37855;53.204;6.568;2023-07-29T14:48:43;22.40;61.90
51801;DHT22;37855;53.204;6.568;2023-07-29T14:51:08;22.40;61.10
51801;DHT22;37855;53.204;6.568;2023-07-29T14:53:34;22.30;61.30
51801;DHT22;37855;53.204;6.568;2023-07-29T14:56:00;22.40;61.50
51801;DHT22;37855;53.204;6.568;2023-07-29T14:58:25;22.50;61.40
51801;DHT22;37855;53.204;6.568;2023-07-29T15:00:54;22.70;61.10
51801;DHT22;37855;53.204;6.568;2023-07-29T15:03:20;22.80;60.60
51801;DHT22;37855;53.204;6.568;2023-07-29T15:05:45;22.90;60.50
51801;DHT22;37855;53.204;6.568;2023-07-29T15:08:11;22.90;59.90
51801;DHT22;37855;53.204;6.568;2023-07-29T15:10:37;22.90;60.00
51801;DHT22;37855;53.204;6.568;2023-07-29T15:13:02;22.80;59.90
51801;DHT22;37855;53.204;6.568;2023-07-29T15:15:28;22.60;60.40
51801;DHT22;37855;53.204;6.568;2023-07-29T15:17:54;22.60;60.50
51801;DHT22;37855;53.204;6.568;2023-07-29T15:20:21;22.60;60.40
51801;DHT22;37855;53.204;6.568;2023-07-29T15:22:49;22.70;60.50
51801;DHT22;37855;53.204;6.568;2023-07-29T15:25:15;22.70;60.20
51801;DHT22;37855;53.204;6.568;2023-07-29T15:27:41;22.80;59.40
51801;DHT22;37855;53.204;6.568;2023-07-29T15:30:10;22.90;58.90
51801;DHT22;37855;53.204;6.568;2023-07-29T15:32:37;22.90;57.40
51801;DHT22;37855;53.204;6.568;2023-07-29T15:35:03;23.10;56.50
51801;DHT22;37855;53.204;6.568;2023-07-29T15:37:29;23.10;56.60
51801;DHT22;37855;53.204;6.568;2023-07-29T15:39:54;23.20;56.70
51801;DHT22;37855;53.204;6.568;2023-07-29T15:42:20;23.20;56.50
51801;DHT22;37855;53.204;6.568;2023-07-29T15:44:46;23.20;56.50